sensor_id;sensor_type;location;lat;lon;timestamp;pressure;altitude;pressure_sealevel;temperature;humidity
34482;BME280;20720;48.886;9.388;2023-08-30T00:02:12;97708.69;;;17.28;100.00
34482;BME280;20720;48.886;9.388;2023-08-30T00:04:37;97706.84;;;17.33;100.00
34482;BME280;20720;48.886;9.388;2023-08-30T00:07:03;97705.25;;;17.32;100.00
34482;BME280;20720;48.886;9.388;2023-08-30T00:09:28;97686.38;;;16.87;100.00
34482;BME280;20720;48.886;9.388;2023-08-30T00:11:53;97677.78;;;17.12;100.00
34482;BME280;20720;48.886;9.388;2023-08-30T00:14:18;97671.66;;;17.11;100.00
34482;BME280;20720;48.886;9.388;2023-08-30T00:16:44;97668.81;;;16.81;100.00
34482;BME280;20720;48.886;9.388;2023-08-30T00:19:09;97664.69;;;17.00;100.00
34482;BME280;20720;48.886;9.388;2023-08-30T00:21:34;97672.28;;;17.28;100.00
34482;BME280;20720;48.886;9.388;2023-08-30T00:23:59;97677.59;;;17.28;100.00
34482;BME280;20720;48.886;9.388;2023-08-30T00:26:25;97681.06;;;17.29;100.00
34482;BME280;20720;48.886;9.388;2023-08-30T00:28:50;97669.63;;;17.23;100.00
34482;BME280;20720;48.886;9.388;2023-08-30T00:31:15;97674.47;;;17.41;100.00
34482;BME280;20720;48.886;9.388;2023-08-30T00:33:41;97661.09;;;17.21;100.00
34482;BME280;20720;48.886;9.388;2023-08-30T00:36:06;97656.94;;;17.35;100.00
34482;BME280;20720;48.886;9.388;2023-08-30T00:38:33;97666.97;;;17.28;100.00
34482;BME280;20720;48.886;9.388;2023-08-30T00:40:58;97667.84;;;17.39;100.00
34482;BME280;20720;48.886;9.388;2023-08-30T00:43:23;97654.00;;;16.90;100.00
34482;BME280;20720;48.886;9.388;2023-08-30T00:45:49;97645.34;;;16.63;100.00
34482;BME280;20720;48.886;9.388;2023-08-30T00:48:15;97648.22;;;16.98;100.00
34482;BME280;20720;48.886;9.388;2023-08-30T00:50:41;97646.72;;;17.12;100.00
34482;BME280;20720;48.886;9.388;2023-08-30T00:53:07;97655.88;;;17.41;100.00
34482;BME280;20720;48.886;9.388;2023-08-30T00:55:34;97666.97;;;17.28;100.00
34482;BME280;20720;48.886;9.388;2023-08-30T00:58:00;97658.00;;;17.39;100.00
34482;BME280;20720;48.886;9.388;2023-08-30T01:00:27;97665.56;;;17.57;100.00
34482;BME280;20720;48.886;9.388;2023-08-30T01:02:53;97658.66;;;17.15;100.00
34482;BME280;20720;48.886;9.388;2023-08-30T01:05:19;97653.44;;;17.30;100.00
34482;BME280;20720;48.886;9.388;2023-08-30T01:07:44;97658.19;;;17.23;100.00
34482;BME280;20720;48.886;9.388;2023-08-30T01:10:09;97648.47;;;16.91;100.00
34482;BME280;20720;48.886;9.388;2023-08-30T01:12:49;97649.72;;;17.26;100.00
34482;BME280;20720;48.886;9.388;2023-08-30T01:15:22;97658.50;;;17.31;100.00
34482;BME280;20720;48.886;9.388;2023-08-30T01:17:51;97653.22;;;17.36;100.00
34482;BME280;20720;48.886;9.388;2023-08-30T01:20:18;97659.47;;;17.10;100.00
34482;BME280;20720;48.886;9.388;2023-08-30T01:25:36;97629.91;;;16.60;100.00
34482;BME280;20720;48.886;9.388;2023-08-30T01:28:08;97635.78;;;16.62;100.00
34482;BME280;20720;48.886;9.388;2023-08-30T01:30:37;97636.22;;;16.85;100.00
34482;BME280;20720;48.886;9.388;2023-08-30T01:33:04;97637.25;;;16.84;100.00
34482;BME280;20720;48.886;9.388;2023-08-30T01:35:30;97645.06;;;17.01;100.00
34482;BME280;20720;48.886;9.388;2023-08-30T01:38:02;97652.25;;;17.06;100.00
34482;BME280;20720;48.886;9.388;2023-08-30T01:40:28;97654.63;;;17.02;100.00
34482;BME280;20720;48.886;9.388;2023-08-30T01:42:55;97664.09;;;16.88;100.00
34482;BME280;20720;48.886;9.388;2023-08-30T01:45:23;97660.16;;;16.96;100.00
34482;BME280;20720;48.886;9.388;2023-08-30T01:47:49;97667.25;;;16.85;100.00
34482;BME280;20720;48.886;9.388;2023-08-30T01:50:18;97666.66;;;16.46;100.00
34482;BME280;20720;48.886;9.388;2023-08-30T01:52:44;97652.91;;;16.49;100.00
34482;BME280;20720;48.886;9.388;2023-08-30T01:55:11;97646.31;;;16.52;100.00
34482;BME280;20720;48.886;9.388;2023-08-30T01:57:38;97657.16;;;16.82;100.00
34482;BME280;20720;48.886;9.388;2023-08-30T02:00:04;97661.81;;;16.65;100.00
34482;BME280;20720;48.886;9.388;2023-08-30T02:02:30;97661.25;;;16.63;100.00
34482;BME280;20720;48.886;9.388;2023-08-30T02:04:55;97669.25;;;16.68;100.00
34482;BME280;20720;48.886;9.388;2023-08-30T02:07:25;97666.44;;;16.48;100.00
34482;BME280;20720;48.886;9.388;2023-08-30T02:10:11;97668.13;;;16.59;100.00
34482;BME280;20720;48.886;9.388;2023-08-30T02:12:52;97661.03;;;16.43;100.00
34482;BME280;20720;48.886;9.388;2023-08-30T02:15:20;97666.38;;;16.74;100.00
34482;BME280;20720;48.886;9.388;2023-08-30T02:17:46;97673.03;;;16.77;100.00
34482;BME280;20720;48.886;9.388;2023-08-30T02:20:12;97674.16;;;16.86;100.00
34482;BME280;20720;48.886;9.388;2023-08-30T02:22:38;97671.53;;;16.91;100.00
34482;BME280;20720;48.886;9.388;2023-08-30T02:25:03;97674.16;;;16.86;100.00
34482;BME280;20720;48.886;9.388;2023-08-30T02:27:31;97658.09;;;16.39;100.00
34482;BME280;20720;48.886;9.388;2023-08-30T02:29:56;97647.28;;;16.46;100.00
34482;BME280;20720;48.886;9.388;2023-08-30T02:32:21;97631.50;;;15.49;100.00
34482;BME280;20720;48.886;9.388;2023-08-30T02:34:50;97626.00;;;16.36;100.00
34482;BME280;20720;48.886;9.388;2023-08-30T02:37:15;97647.66;;;16.91;100.00
34482;BME280;20720;48.886;9.388;2023-08-30T02:39:41;97651.75;;;17.09;100.00
34482;BME280;20720;48.886;9.388;2023-08-30T02:42:06;97654.06;;;17.00;100.00
34482;BME280;20720;48.886;9.388;2023-08-30T02:44:31;97646.81;;;16.49;100.00
34482;BME280;20720;48.886;9.388;2023-08-30T02:46:56;97641.50;;;16.49;100.00
34482;BME280;20720;48.886;9.388;2023-08-30T02:49:22;97657.00;;;16.62;100.00
34482;BME280;20720;48.886;9.388;2023-08-30T02:51:47;97662.97;;;16.79;100.00
34482;BME280;20720;48.886;9.388;2023-08-30T02:54:12;97657.19;;;16.87;100.00
34482;BME280;20720;48.886;9.388;2023-08-30T02:56:38;97658.72;;;16.78;100.00
34482;BME280;20720;48.886;9.388;2023-08-30T02:59:03;97663.56;;;16.86;100.00
34482;BME280;20720;48.886;9.388;2023-08-30T03:01:29;97648.44;;;16.50;100.00
34482;BME280;20720;48.886;9.388;2023-08-30T03:03:54;97666.16;;;16.81;100.00
34482;BME280;20720;48.886;9.388;2023-08-30T03:06:19;97654.69;;;16.44;100.00
34482;BME280;20720;48.886;9.388;2023-08-30T03:08:44;97658.63;;;16.68;100.00
34482;BME280;20720;48.886;9.388;2023-08-30T03:11:11;97651.13;;;16.60;100.00
34482;BME280;20720;48.886;9.388;2023-08-30T03:13:36;97650.59;;;16.58;100.00
34482;BME280;20720;48.886;9.388;2023-08-30T03:16:10;97650.09;;;16.61;100.00
34482;BME280;20720;48.886;9.388;2023-08-30T03:18:36;97646.31;;;16.52;100.00
34482;BME280;20720;48.886;9.388;2023-08-30T03:21:01;97651.19;;;16.65;100.00
34482;BME280;20720;48.886;9.388;2023-08-30T03:23:27;97644.53;;;16.62;100.00
34482;BME280;20720;48.886;9.388;2023-08-30T03:25:52;97642.72;;;16.68;100.00
34482;BME280;20720;48.886;9.388;2023-08-30T03:28:17;97645.44;;;16.78;100.00
34482;BME280;20720;48.886;9.388;2023-08-30T03:30:43;97648.19;;;16.93;100.00
34482;BME280;20720;48.886;9.388;2023-08-30T03:33:08;97647.53;;;16.71;100.00
34482;BME280;20720;48.886;9.388;2023-08-30T03:35:34;97643.53;;;16.68;100.00
34482;BME280;20720;48.886;9.388;2023-08-30T03:38:00;97634.38;;;16.91;100.00
34482;BME280;20720;48.886;9.388;2023-08-30T03:40:25;97645.53;;;16.88;100.00
34482;BME280;20720;48.886;9.388;2023-08-30T03:42:52;97644.47;;;16.89;100.00
34482;BME280;20720;48.886;9.388;2023-08-30T03:45:17;97645.56;;;16.98;100.00
34482;BME280;20720;48.886;9.388;2023-08-30T03:47:43;97653.59;;;17.03;100.00
34482;BME280;20720;48.886;9.388;2023-08-30T03:50:08;97647.19;;;16.99;100.00
34482;BME280;20720;48.886;9.388;2023-08-30T03:52:34;97637.88;;;17.02;100.00
34482;BME280;20720;48.886;9.388;2023-08-30T03:55:00;97642.66;;;17.00;100.00
34482;BME280;20720;48.886;9.388;2023-08-30T03:57:25;97639.44;;;16.98;100.00
34482;BME280;20720;48.886;9.388;2023-08-30T03:59:51;97622.94;;;15.90;100.00
34482;BME280;20720;48.886;9.388;2023-08-30T04:02:16;97611.50;;;15.63;100.00
34482;BME280;20720;48.886;9.388;2023-08-30T04:04:41;97613.03;;;16.08;100.00
34482;BME280;20720;48.886;9.388;2023-08-30T04:07:06;97635.38;;;16.80;100.00
34482;BME280;20720;48.886;9.388;2023-08-30T04:09:32;97636.50;;;16.26;100.00
34482;BME280;20720;48.886;9.388;2023-08-30T04:11:57;97652.41;;;16.84;100.00
34482;BME280;20720;48.886;9.388;2023-08-30T04:14:23;97644.19;;;16.90;100.00
34482;BME280;20720;48.886;9.388;2023-08-30T04:16:48;97651.47;;;17.05;100.00
34482;BME280;20720;48.886;9.388;2023-08-30T04:19:13;97656.25;;;17.08;100.00
34482;BME280;20720;48.886;9.388;2023-08-30T04:21:38;97662.38;;;17.09;100.00
34482;BME280;20720;48.886;9.388;2023-08-30T04:24:04;97664.19;;;17.03;100.00
34482;BME280;20720;48.886;9.388;2023-08-30T04:26:29;97661.50;;;16.98;100.00
34482;BME280;20720;48.886;9.388;2023-08-30T04:28:55;97656.25;;;16.66;100.00
34482;BME280;20720;48.886;9.388;2023-08-30T04:31:20;97654.06;;;16.95;100.00
34482;BME280;20720;48.886;9.388;2023-08-30T04:33:45;97651.72;;;17.04;100.00
34482;BME280;20720;48.886;9.388;2023-08-30T04:36:10;97655.16;;;17.04;100.00
34482;BME280;20720;48.886;9.388;2023-08-30T04:38:36;97646.19;;;16.68;100.00
34482;BME280;20720;48.886;9.388;2023-08-30T04:41:01;97654.34;;;16.99;100.00
34482;BME280;20720;48.886;9.388;2023-08-30T04:43:26;97660.47;;;17.04;100.00
34482;BME280;20720;48.886;9.388;2023-08-30T04:45:51;97653.97;;;16.85;100.00
34482;BME280;20720;48.886;9.388;2023-08-30T04:48:17;97648.25;;;16.61;100.00
34482;BME280;20720;48.886;9.388;2023-08-30T04:50:42;97645.16;;;16.74;100.00
34482;BME280;20720;48.886;9.388;2023-08-30T04:53:07;97640.50;;;16.55;100.00
34482;BME280;20720;48.886;9.388;2023-08-30T04:55:32;97641.28;;;16.92;100.00
34482;BME280;20720;48.886;9.388;2023-08-30T04:57:57;97650.41;;;17.06;100.00
34482;BME280;20720;48.886;9.388;2023-08-30T05:00:23;97637.38;;;16.63;100.00
34482;BME280;20720;48.886;9.388;2023-08-30T05:02:48;97635.19;;;16.91;100.00
34482;BME280;20720;48.886;9.388;2023-08-30T05:05:14;97638.16;;;17.00;100.00
34482;BME280;20720;48.886;9.388;2023-08-30T05:07:39;97633.09;;;16.93;100.00
34482;BME280;20720;48.886;9.388;2023-08-30T05:10:05;97645.19;;;17.21;100.00
34482;BME280;20720;48.886;9.388;2023-08-30T05:12:32;97618.28;;;16.34;100.00
34482;BME280;20720;48.886;9.388;2023-08-30T05:14:58;97617.09;;;16.20;100.00
34482;BME280;20720;48.886;9.388;2023-08-30T05:17:23;97636.38;;;17.16;100.00
34482;BME280;20720;48.886;9.388;2023-08-30T05:19:49;97625.31;;;17.34;100.00
34482;BME280;20720;48.886;9.388;2023-08-30T05:22:14;97636.38;;;17.16;100.00
34482;BME280;20720;48.886;9.388;2023-08-30T05:24:39;97630.31;;;17.20;100.00
34482;BME280;20720;48.886;9.388;2023-08-30T05:27:04;97633.69;;;17.52;100.00
34482;BME280;20720;48.886;9.388;2023-08-30T05:29:30;97639.50;;;17.49;100.00
34482;BME280;20720;48.886;9.388;2023-08-30T05:31:55;97636.59;;;17.56;100.00
34482;BME280;20720;48.886;9.388;2023-08-30T05:34:20;97636.94;;;17.69;100.00
34482;BME280;20720;48.886;9.388;2023-08-30T05:36:45;97630.66;;;17.39;100.00
34482;BME280;20720;48.886;9.388;2023-08-30T05:39:11;97635.81;;;17.55;100.00
34482;BME280;20720;48.886;9.388;2023-08-30T05:41:36;97632.88;;;17.57;100.00
34482;BME280;20720;48.886;9.388;2023-08-30T05:44:02;97638.50;;;17.65;100.00
34482;BME280;20720;48.886;9.388;2023-08-30T05:46:27;97640.03;;;17.51;100.00
34482;BME280;20720;48.886;9.388;2023-08-30T05:48:53;97633.78;;;17.82;100.00
34482;BME280;20720;48.886;9.388;2023-08-30T05:51:19;97625.44;;;17.02;100.00
34482;BME280;20720;48.886;9.388;2023-08-30T05:53:45;97630.00;;;17.63;100.00
34482;BME280;20720;48.886;9.388;2023-08-30T05:56:10;97632.88;;;17.57;100.00
34482;BME280;20720;48.886;9.388;2023-08-30T05:58:35;97628.09;;;17.02;100.00
34482;BME280;20720;48.886;9.388;2023-08-30T06:01:01;97625.63;;;17.47;100.00
34482;BME280;20720;48.886;9.388;2023-08-30T06:03:27;97642.06;;;18.16;100.00
34482;BME280;20720;48.886;9.388;2023-08-30T06:05:52;97644.31;;;17.57;100.00
34482;BME280;20720;48.886;9.388;2023-08-30T06:08:18;97638.03;;;17.99;100.00
34482;BME280;20720;48.886;9.388;2023-08-30T06:10:43;97638.34;;;17.35;100.00
34482;BME280;20720;48.886;9.388;2023-08-30T06:13:09;97640.97;;;17.92;100.00
34482;BME280;20720;48.886;9.388;2023-08-30T06:15:35;97641.81;;;18.33;100.00
34482;BME280;20720;48.886;9.388;2023-08-30T06:18:02;97642.91;;;18.52;100.00
34482;BME280;20720;48.886;9.388;2023-08-30T06:20:28;97646.91;;;18.69;100.00
34482;BME280;20720;48.886;9.388;2023-08-30T06:22:53;97656.16;;;18.12;100.00
34482;BME280;20720;48.886;9.388;2023-08-30T06:25:18;97622.88;;;17.22;100.00
34482;BME280;20720;48.886;9.388;2023-08-30T06:27:58;97637.50;;;17.97;100.00
34482;BME280;20720;48.886;9.388;2023-08-30T06:30:27;97643.28;;;17.63;100.00
34482;BME280;20720;48.886;9.388;2023-08-30T06:32:53;97642.94;;;18.47;100.00
34482;BME280;20720;48.886;9.388;2023-08-30T06:35:18;97648.47;;;18.30;100.00
34482;BME280;20720;48.886;9.388;2023-08-30T06:37:44;97651.41;;;18.39;100.00
34482;BME280;20720;48.886;9.388;2023-08-30T06:40:09;97651.44;;;18.64;100.00
34482;BME280;20720;48.886;9.388;2023-08-30T06:42:35;97649.00;;;18.88;100.00
34482;BME280;20720;48.886;9.388;2023-08-30T06:45:01;97642.91;;;18.77;100.00
34482;BME280;20720;48.886;9.388;2023-08-30T06:47:27;97642.03;;;19.22;100.00
34482;BME280;20720;48.886;9.388;2023-08-30T06:49:52;97648.25;;;18.77;100.00
34482;BME280;20720;48.886;9.388;2023-08-30T06:52:18;97649.75;;;19.28;100.00
34482;BME280;20720;48.886;9.388;2023-08-30T06:54:43;97644.97;;;19.20;100.00
34482;BME280;20720;48.886;9.388;2023-08-30T06:57:08;97652.47;;;19.03;100.00
34482;BME280;20720;48.886;9.388;2023-08-30T06:59:34;97644.44;;;19.08;100.00
34482;BME280;20720;48.886;9.388;2023-08-30T07:01:59;97653.25;;;18.99;100.00
34482;BME280;20720;48.886;9.388;2023-08-30T07:04:24;97655.59;;;19.35;100.00
34482;BME280;20720;48.886;9.388;2023-08-30T07:06:50;97656.56;;;19.59;100.00
34482;BME280;20720;48.886;9.388;2023-08-30T07:09:15;97651.69;;;19.77;100.00
34482;BME280;20720;48.886;9.388;2023-08-30T07:11:45;97652.94;;;19.30;100.00
34482;BME280;20720;48.886;9.388;2023-08-30T07:14:11;97646.72;;;19.55;100.00
34482;BME280;20720;48.886;9.388;2023-08-30T07:16:37;97648.69;;;19.24;100.00
34482;BME280;20720;48.886;9.388;2023-08-30T07:19:03;97649.63;;;19.63;100.00
34482;BME280;20720;48.886;9.388;2023-08-30T07:21:28;97651.13;;;19.80;100.00
34482;BME280;20720;48.886;9.388;2023-08-30T07:23:53;97656.69;;;19.93;100.00
34482;BME280;20720;48.886;9.388;2023-08-30T07:26:19;97653.38;;;19.57;100.00
34482;BME280;20720;48.886;9.388;2023-08-30T07:28:45;97646.13;;;19.73;100.00
34482;BME280;20720;48.886;9.388;2023-08-30T07:31:10;97650.28;;;19.35;100.00
34482;BME280;20720;48.886;9.388;2023-08-30T07:33:38;97658.94;;;19.71;100.00
34482;BME280;20720;48.886;9.388;2023-08-30T07:36:04;97652.19;;;19.89;100.00
34482;BME280;20720;48.886;9.388;2023-08-30T07:38:30;97658.13;;;20.24;100.00
34482;BME280;20720;48.886;9.388;2023-08-30T07:40:55;97660.56;;;20.88;100.00
34482;BME280;20720;48.886;9.388;2023-08-30T07:43:21;97663.28;;;20.06;100.00
34482;BME280;20720;48.886;9.388;2023-08-30T07:45:46;97665.66;;;19.53;100.00
34482;BME280;20720;48.886;9.388;2023-08-30T07:48:11;97652.97;;;19.89;100.00
34482;BME280;20720;48.886;9.388;2023-08-30T07:50:37;97663.44;;;19.70;100.00
34482;BME280;20720;48.886;9.388;2023-08-30T07:53:02;97665.19;;;19.41;100.00
34482;BME280;20720;48.886;9.388;2023-08-30T07:55:27;97669.69;;;19.41;100.00
34482;BME280;20720;48.886;9.388;2023-08-30T07:57:53;97668.78;;;19.70;100.00
34482;BME280;20720;48.886;9.388;2023-08-30T08:00:18;97661.16;;;20.08;100.00
34482;BME280;20720;48.886;9.388;2023-08-30T08:02:43;97662.69;;;20.57;100.00
34482;BME280;20720;48.886;9.388;2023-08-30T08:05:09;97669.31;;;19.73;100.00
34482;BME280;20720;48.886;9.388;2023-08-30T08:07:37;97662.16;;;20.17;100.00
34482;BME280;20720;48.886;9.388;2023-08-30T08:10:03;97654.13;;;20.22;100.00
34482;BME280;20720;48.886;9.388;2023-08-30T08:12:29;97653.47;;;19.37;100.00
34482;BME280;20720;48.886;9.388;2023-08-30T08:14:54;97659.63;;;19.92;100.00
34482;BME280;20720;48.886;9.388;2023-08-30T08:17:19;97651.28;;;20.47;100.00
34482;BME280;20720;48.886;9.388;2023-08-30T08:19:44;97657.56;;;20.61;100.00
34482;BME280;20720;48.886;9.388;2023-08-30T08:22:10;97655.53;;;20.48;100.00
34482;BME280;20720;48.886;9.388;2023-08-30T08:24:35;97660.50;;;20.26;100.00
34482;BME280;20720;48.886;9.388;2023-08-30T08:27:00;97671.84;;;20.80;100.00
34482;BME280;20720;48.886;9.388;2023-08-30T08:29:27;97675.28;;;21.14;100.00
34482;BME280;20720;48.886;9.388;2023-08-30T08:31:53;97671.94;;;21.75;100.00
34482;BME280;20720;48.886;9.388;2023-08-30T08:34:18;97676.50;;;21.50;100.00
34482;BME280;20720;48.886;9.388;2023-08-30T08:36:44;97680.88;;;21.65;100.00
34482;BME280;20720;48.886;9.388;2023-08-30T08:39:09;97677.66;;;20.87;100.00
34482;BME280;20720;48.886;9.388;2023-08-30T08:41:41;97681.81;;;21.03;100.00
34482;BME280;20720;48.886;9.388;2023-08-30T08:44:07;97680.31;;;21.44;100.00
34482;BME280;20720;48.886;9.388;2023-08-30T08:46:34;97690.41;;;20.95;100.00
34482;BME280;20720;48.886;9.388;2023-08-30T08:49:13;97680.69;;;20.42;100.00
34482;BME280;20720;48.886;9.388;2023-08-30T08:51:40;97685.44;;;21.41;100.00
34482;BME280;20720;48.886;9.388;2023-08-30T08:54:06;97695.59;;;22.10;100.00
34482;BME280;20720;48.886;9.388;2023-08-30T08:56:32;97692.31;;;21.23;100.00
34482;BME280;20720;48.886;9.388;2023-08-30T08:58:57;97690.44;;;20.90;100.00
34482;BME280;20720;48.886;9.388;2023-08-30T09:01:24;97693.44;;;21.17;100.00
34482;BME280;20720;48.886;9.388;2023-08-30T09:03:50;97700.44;;;22.45;100.00
34482;BME280;20720;48.886;9.388;2023-08-30T09:06:15;97696.84;;;21.46;100.00
34482;BME280;20720;48.886;9.388;2023-08-30T09:08:41;97705.69;;;21.94;100.00
34482;BME280;20720;48.886;9.388;2023-08-30T09:11:06;97711.22;;;22.40;100.00
34482;BME280;20720;48.886;9.388;2023-08-30T09:13:31;97714.34;;;23.16;96.51
34482;BME280;20720;48.886;9.388;2023-08-30T09:15:57;97715.69;;;22.26;100.00
34482;BME280;20720;48.886;9.388;2023-08-30T09:18:22;97711.03;;;22.36;100.00
34482;BME280;20720;48.886;9.388;2023-08-30T09:20:52;97719.34;;;22.72;98.35
34482;BME280;20720;48.886;9.388;2023-08-30T09:23:21;97721.94;;;23.09;92.25
34482;BME280;20720;48.886;9.388;2023-08-30T09:25:46;97731.50;;;22.83;93.62
34482;BME280;20720;48.886;9.388;2023-08-30T09:28:12;97729.50;;;23.67;88.99
34482;BME280;20720;48.886;9.388;2023-08-30T09:30:39;97728.72;;;23.39;86.88
34482;BME280;20720;48.886;9.388;2023-08-30T09:33:04;97719.94;;;23.33;91.39
34482;BME280;20720;48.886;9.388;2023-08-30T09:35:30;97719.00;;;24.11;81.47
34482;BME280;20720;48.886;9.388;2023-08-30T09:37:55;97717.28;;;24.86;80.80
34482;BME280;20720;48.886;9.388;2023-08-30T09:40:20;97723.47;;;23.75;87.75
34482;BME280;20720;48.886;9.388;2023-08-30T09:42:46;97719.06;;;24.55;83.50
34482;BME280;20720;48.886;9.388;2023-08-30T09:45:19;97716.31;;;22.60;90.15
34482;BME280;20720;48.886;9.388;2023-08-30T09:47:48;97721.22;;;22.53;87.27
34482;BME280;20720;48.886;9.388;2023-08-30T09:50:19;97716.97;;;23.03;86.42
34482;BME280;20720;48.886;9.388;2023-08-30T09:52:49;97720.66;;;23.07;88.71
34482;BME280;20720;48.886;9.388;2023-08-30T09:55:15;97711.41;;;23.31;89.57
34482;BME280;20720;48.886;9.388;2023-08-30T09:57:42;97715.25;;;24.34;81.07
34482;BME280;20720;48.886;9.388;2023-08-30T10:00:09;97713.97;;;25.64;79.05
34482;BME280;20720;48.886;9.388;2023-08-30T10:02:38;97716.19;;;26.44;73.07
34482;BME280;20720;48.886;9.388;2023-08-30T10:05:07;97717.09;;;24.47;77.44
34482;BME280;20720;48.886;9.388;2023-08-30T10:07:33;97705.31;;;25.45;80.46
34482;BME280;20720;48.886;9.388;2023-08-30T10:10:00;97718.56;;;26.20;75.15
34482;BME280;20720;48.886;9.388;2023-08-30T10:12:25;97714.78;;;25.82;74.91
34482;BME280;20720;48.886;9.388;2023-08-30T10:14:50;97713.16;;;24.67;77.69
34482;BME280;20720;48.886;9.388;2023-08-30T10:17:18;97705.03;;;25.94;72.18
34482;BME280;20720;48.886;9.388;2023-08-30T10:19:43;97701.81;;;26.74;70.52
34482;BME280;20720;48.886;9.388;2023-08-30T10:22:10;97696.19;;;25.33;73.01
34482;BME280;20720;48.886;9.388;2023-08-30T10:24:45;97693.13;;;25.95;67.49
34482;BME280;20720;48.886;9.388;2023-08-30T10:27:13;97693.16;;;27.70;62.20
34482;BME280;20720;48.886;9.388;2023-08-30T10:29:41;97696.69;;;26.22;69.22
34482;BME280;20720;48.886;9.388;2023-08-30T10:32:08;97688.50;;;26.69;64.66
34482;BME280;20720;48.886;9.388;2023-08-30T10:34:35;97685.84;;;26.04;66.83
34482;BME280;20720;48.886;9.388;2023-08-30T10:37:03;97689.66;;;27.40;64.39
34482;BME280;20720;48.886;9.388;2023-08-30T10:39:41;97696.38;;;26.91;61.93
34482;BME280;20720;48.886;9.388;2023-08-30T10:42:08;97694.50;;;26.41;66.09
34482;BME280;20720;48.886;9.388;2023-08-30T10:44:34;97692.13;;;26.39;63.89
34482;BME280;20720;48.886;9.388;2023-08-30T10:47:02;97692.06;;;27.16;62.99
34482;BME280;20720;48.886;9.388;2023-08-30T10:49:27;97685.41;;;27.98;59.45
34482;BME280;20720;48.886;9.388;2023-08-30T10:51:57;97681.97;;;26.28;63.88
34482;BME280;20720;48.886;9.388;2023-08-30T10:54:23;97689.91;;;26.75;64.99
34482;BME280;20720;48.886;9.388;2023-08-30T10:56:54;97692.56;;;26.07;64.79
34482;BME280;20720;48.886;9.388;2023-08-30T10:59:22;97682.13;;;26.65;66.25
34482;BME280;20720;48.886;9.388;2023-08-30T11:01:49;97674.41;;;27.73;60.29
34482;BME280;20720;48.886;9.388;2023-08-30T11:04:17;97676.75;;;26.82;61.83
34482;BME280;20720;48.886;9.388;2023-08-30T11:06:44;97681.34;;;26.56;62.69
34482;BME280;20720;48.886;9.388;2023-08-30T11:09:12;97669.94;;;29.46;55.28
34482;BME280;20720;48.886;9.388;2023-08-30T11:11:37;97674.78;;;27.17;60.48
34482;BME280;20720;48.886;9.388;2023-08-30T11:14:05;97688.13;;;27.14;61.58
34482;BME280;20720;48.886;9.388;2023-08-30T11:16:31;97674.03;;;26.65;60.92
34482;BME280;20720;48.886;9.388;2023-08-30T11:18:56;97670.03;;;25.47;63.41
34482;BME280;20720;48.886;9.388;2023-08-30T11:21:21;97664.97;;;27.50;58.84
34482;BME280;20720;48.886;9.388;2023-08-30T11:23:46;97676.19;;;27.15;55.80
34482;BME280;20720;48.886;9.388;2023-08-30T11:26:12;97663.75;;;28.06;53.35
34482;BME280;20720;48.886;9.388;2023-08-30T11:28:37;97663.72;;;28.89;51.72
34482;BME280;20720;48.886;9.388;2023-08-30T11:31:08;97662.25;;;28.17;52.37
34482;BME280;20720;48.886;9.388;2023-08-30T11:33:33;97659.91;;;28.07;53.71
34482;BME280;20720;48.886;9.388;2023-08-30T11:35:59;97653.50;;;27.91;55.98
34482;BME280;20720;48.886;9.388;2023-08-30T11:38:26;97652.31;;;29.16;52.37
34482;BME280;20720;48.886;9.388;2023-08-30T11:40:51;97657.41;;;28.43;52.83
34482;BME280;20720;48.886;9.388;2023-08-30T11:43:16;97658.19;;;28.85;53.17
34482;BME280;20720;48.886;9.388;2023-08-30T11:45:42;97665.03;;;29.72;50.02
34482;BME280;20720;48.886;9.388;2023-08-30T11:48:07;97660.78;;;29.14;50.19
34482;BME280;20720;48.886;9.388;2023-08-30T11:50:33;97659.78;;;26.39;56.16
34482;BME280;20720;48.886;9.388;2023-08-30T11:52:59;97651.06;;;24.90;59.97
34482;BME280;20720;48.886;9.388;2023-08-30T11:55:24;97650.16;;;27.65;56.43
34482;BME280;20720;48.886;9.388;2023-08-30T11:57:50;97645.31;;;28.29;54.33
34482;BME280;20720;48.886;9.388;2023-08-30T12:00:18;97641.66;;;27.75;56.15
34482;BME280;20720;48.886;9.388;2023-08-30T12:02:45;97654.91;;;27.68;56.91
34482;BME280;20720;48.886;9.388;2023-08-30T12:05:14;97649.38;;;27.56;55.79
34482;BME280;20720;48.886;9.388;2023-08-30T12:07:41;97652.13;;;27.47;55.74
34482;BME280;20720;48.886;9.388;2023-08-30T12:10:10;97646.31;;;27.28;57.41
34482;BME280;20720;48.886;9.388;2023-08-30T12:12:36;97651.47;;;25.93;57.79
34482;BME280;20720;48.886;9.388;2023-08-30T12:15:12;97646.59;;;26.03;62.16
34482;BME280;20720;48.886;9.388;2023-08-30T12:17:38;97646.34;;;24.74;65.19
34482;BME280;20720;48.886;9.388;2023-08-30T12:20:03;97643.47;;;25.54;65.95
34482;BME280;20720;48.886;9.388;2023-08-30T12:22:39;97650.59;;;25.58;67.24
34482;BME280;20720;48.886;9.388;2023-08-30T12:25:15;97651.09;;;25.69;67.74
34482;BME280;20720;48.886;9.388;2023-08-30T12:27:41;97651.09;;;25.69;70.34
34482;BME280;20720;48.886;9.388;2023-08-30T12:30:07;97647.13;;;23.81;79.62
34482;BME280;20720;48.886;9.388;2023-08-30T12:32:32;97648.41;;;23.83;85.80
34482;BME280;20720;48.886;9.388;2023-08-30T12:34:58;97658.13;;;23.25;95.65
34482;BME280;20720;48.886;9.388;2023-08-30T12:37:24;97654.41;;;21.64;100.00
34482;BME280;20720;48.886;9.388;2023-08-30T12:39:49;97643.94;;;21.25;100.00
34482;BME280;20720;48.886;9.388;2023-08-30T12:42:14;97634.66;;;20.84;100.00
34482;BME280;20720;48.886;9.388;2023-08-30T12:44:39;97619.91;;;20.34;100.00
34482;BME280;20720;48.886;9.388;2023-08-30T12:47:05;97606.44;;;20.10;100.00
34482;BME280;20720;48.886;9.388;2023-08-30T12:49:30;97608.31;;;20.10;100.00
34482;BME280;20720;48.886;9.388;2023-08-30T12:51:55;97600.31;;;21.06;100.00